sensor_id;sensor_type;location;lat;lon;timestamp;P1;durP1;ratioP1;P2;durP2;ratioP2
25950;SDS011;13748;52.240;6.002;2022-08-14T00:01:57;11.85;;;9.93;;
25950;SDS011;13748;52.240;6.002;2022-08-14T00:04:27;11.65;;;9.90;;
25950;SDS011;13748;52.240;6.002;2022-08-14T00:07:02;12.60;;;9.90;;
25950;SDS011;13748;52.240;6.002;2022-08-14T00:09:31;13.80;;;9.77;;
25950;SDS011;13748;52.240;6.002;2022-08-14T00:11:58;11.68;;;10.25;;
25950;SDS011;13748;52.240;6.002;2022-08-14T00:14:25;13.48;;;10.48;;
25950;SDS011;13748;52.240;6.002;2022-08-14T00:16:53;13.85;;;11.55;;
25950;SDS011;13748;52.240;6.002;2022-08-14T00:19:21;14.70;;;10.80;;
25950;SDS011;13748;52.240;6.002;2022-08-14T00:21:49;13.77;;;11.18;;
25950;SDS011;13748;52.240;6.002;2022-08-14T00:24:18;13.50;;;11.77;;
25950;SDS011;13748;52.240;6.002;2022-08-14T00:26:54;14.90;;;12.05;;
25950;SDS011;13748;52.240;6.002;2022-08-14T00:29:22;13.40;;;11.98;;
25950;SDS011;13748;52.240;6.002;2022-08-14T00:31:52;12.52;;;11.07;;
25950;SDS011;13748;52.240;6.002;2022-08-14T00:34:22;12.93;;;11.48;;
25950;SDS011;13748;52.240;6.002;2022-08-14T00:37:03;12.65;;;11.27;;
25950;SDS011;13748;52.240;6.002;2022-08-14T00:39:32;15.48;;;12.55;;
25950;SDS011;13748;52.240;6.002;2022-08-14T00:41:59;13.30;;;10.88;;
25950;SDS011;13748;52.240;6.002;2022-08-14T00:44:28;12.85;;;11.52;;
25950;SDS011;13748;52.240;6.002;2022-08-14T00:47:02;12.93;;;11.60;;
25950;SDS011;13748;52.240;6.002;2022-08-14T00:49:36;12.45;;;11.20;;
25950;SDS011;13748;52.240;6.002;2022-08-14T00:52:13;12.43;;;10.98;;
25950;SDS011;13748;52.240;6.002;2022-08-14T00:54:44;13.70;;;11.60;;
25950;SDS011;13748;52.240;6.002;2022-08-14T00:57:13;13.05;;;11.10;;
25950;SDS011;13748;52.240;6.002;2022-08-14T00:59:40;14.30;;;11.00;;
25950;SDS011;13748;52.240;6.002;2022-08-14T01:02:06;16.52;;;12.07;;
25950;SDS011;13748;52.240;6.002;2022-08-14T01:04:35;14.35;;;12.00;;
25950;SDS011;13748;52.240;6.002;2022-08-14T01:07:20;15.23;;;12.05;;
25950;SDS011;13748;52.240;6.002;2022-08-14T01:09:49;12.77;;;11.40;;
25950;SDS011;13748;52.240;6.002;2022-08-14T01:12:18;14.07;;;12.57;;
25950;SDS011;13748;52.240;6.002;2022-08-14T01:14:55;16.88;;;11.38;;
25950;SDS011;13748;52.240;6.002;2022-08-14T01:17:24;16.35;;;11.95;;
25950;SDS011;13748;52.240;6.002;2022-08-14T01:20:15;17.85;;;12.05;;
25950;SDS011;13748;52.240;6.002;2022-08-14T01:23:05;12.82;;;11.52;;
25950;SDS011;13748;52.240;6.002;2022-08-14T01:25:45;13.35;;;11.57;;
25950;SDS011;13748;52.240;6.002;2022-08-14T01:28:13;12.50;;;10.68;;
25950;SDS011;13748;52.240;6.002;2022-08-14T01:31:00;15.13;;;10.60;;
25950;SDS011;13748;52.240;6.002;2022-08-14T01:33:31;12.75;;;11.30;;
25950;SDS011;13748;52.240;6.002;2022-08-14T01:36:18;12.75;;;11.27;;
25950;SDS011;13748;52.240;6.002;2022-08-14T01:38:48;14.25;;;11.15;;
25950;SDS011;13748;52.240;6.002;2022-08-14T01:41:18;15.95;;;11.80;;
25950;SDS011;13748;52.240;6.002;2022-08-14T01:43:55;15.32;;;11.43;;
25950;SDS011;13748;52.240;6.002;2022-08-14T01:46:28;13.23;;;11.93;;
25950;SDS011;13748;52.240;6.002;2022-08-14T01:49:03;12.75;;;11.45;;
25950;SDS011;13748;52.240;6.002;2022-08-14T01:51:32;14.60;;;12.57;;
25950;SDS011;13748;52.240;6.002;2022-08-14T01:54:12;14.07;;;11.90;;
25950;SDS011;13748;52.240;6.002;2022-08-14T01:56:43;15.55;;;11.98;;
25950;SDS011;13748;52.240;6.002;2022-08-14T02:01:44;13.25;;;11.77;;
25950;SDS011;13748;52.240;6.002;2022-08-14T02:04:25;14.88;;;11.90;;
25950;SDS011;13748;52.240;6.002;2022-08-14T02:07:16;15.88;;;13.13;;
25950;SDS011;13748;52.240;6.002;2022-08-14T02:10:06;14.05;;;12.60;;
25950;SDS011;13748;52.240;6.002;2022-08-14T02:12:42;16.45;;;13.18;;
25950;SDS011;13748;52.240;6.002;2022-08-14T02:15:22;13.30;;;12.00;;
25950;SDS011;13748;52.240;6.002;2022-08-14T02:17:49;15.13;;;13.53;;
25950;SDS011;13748;52.240;6.002;2022-08-14T02:20:17;15.10;;;13.13;;
25950;SDS011;13748;52.240;6.002;2022-08-14T02:22:49;13.93;;;11.88;;
25950;SDS011;13748;52.240;6.002;2022-08-14T02:25:20;13.38;;;11.95;;
25950;SDS011;13748;52.240;6.002;2022-08-14T02:27:47;14.77;;;12.50;;
25950;SDS011;13748;52.240;6.002;2022-08-14T02:30:34;14.63;;;13.10;;
25950;SDS011;13748;52.240;6.002;2022-08-14T02:33:03;16.00;;;14.07;;
25950;SDS011;13748;52.240;6.002;2022-08-14T02:35:32;18.35;;;13.57;;
25950;SDS011;13748;52.240;6.002;2022-08-14T02:38:06;16.15;;;13.65;;
25950;SDS011;13748;52.240;6.002;2022-08-14T02:40:37;18.00;;;13.50;;
25950;SDS011;13748;52.240;6.002;2022-08-14T02:43:05;15.43;;;13.07;;
25950;SDS011;13748;52.240;6.002;2022-08-14T02:45:33;15.95;;;13.00;;
25950;SDS011;13748;52.240;6.002;2022-08-14T02:48:10;18.20;;;13.87;;
25950;SDS011;13748;52.240;6.002;2022-08-14T02:50:58;19.38;;;12.23;;
25950;SDS011;13748;52.240;6.002;2022-08-14T02:53:26;16.50;;;14.47;;
25950;SDS011;13748;52.240;6.002;2022-08-14T02:55:54;15.63;;;13.60;;
25950;SDS011;13748;52.240;6.002;2022-08-14T02:58:44;16.17;;;14.37;;
25950;SDS011;13748;52.240;6.002;2022-08-14T03:01:14;16.07;;;14.07;;
25950;SDS011;13748;52.240;6.002;2022-08-14T03:03:44;17.07;;;14.23;;
25950;SDS011;13748;52.240;6.002;2022-08-14T03:06:14;15.70;;;13.70;;
25950;SDS011;13748;52.240;6.002;2022-08-14T03:09:00;17.50;;;14.30;;
25950;SDS011;13748;52.240;6.002;2022-08-14T03:11:27;15.63;;;13.90;;
25950;SDS011;13748;52.240;6.002;2022-08-14T03:14:00;19.17;;;15.13;;
25950;SDS011;13748;52.240;6.002;2022-08-14T03:16:27;19.70;;;14.90;;
25950;SDS011;13748;52.240;6.002;2022-08-14T03:19:04;17.17;;;14.57;;
25950;SDS011;13748;52.240;6.002;2022-08-14T03:21:37;17.03;;;14.33;;
25950;SDS011;13748;52.240;6.002;2022-08-14T03:24:05;15.80;;;14.10;;
25950;SDS011;13748;52.240;6.002;2022-08-14T03:26:48;17.70;;;14.50;;
25950;SDS011;13748;52.240;6.002;2022-08-14T03:29:23;18.33;;;14.87;;
25950;SDS011;13748;52.240;6.002;2022-08-14T03:31:51;18.80;;;15.40;;
25950;SDS011;13748;52.240;6.002;2022-08-14T03:34:19;18.63;;;16.00;;
25950;SDS011;13748;52.240;6.002;2022-08-14T03:37:08;17.40;;;14.47;;
25950;SDS011;13748;52.240;6.002;2022-08-14T03:39:55;17.27;;;15.47;;
25950;SDS011;13748;52.240;6.002;2022-08-14T03:42:22;19.87;;;15.93;;
25950;SDS011;13748;52.240;6.002;2022-08-14T03:45:00;20.30;;;16.33;;
25950;SDS011;13748;52.240;6.002;2022-08-14T03:47:47;19.53;;;15.90;;
25950;SDS011;13748;52.240;6.002;2022-08-14T03:50:24;19.90;;;16.23;;
25950;SDS011;13748;52.240;6.002;2022-08-14T03:52:58;17.20;;;14.53;;
25950;SDS011;13748;52.240;6.002;2022-08-14T03:55:27;21.37;;;15.73;;
25950;SDS011;13748;52.240;6.002;2022-08-14T03:57:56;19.30;;;15.37;;
25950;SDS011;13748;52.240;6.002;2022-08-14T04:00:25;20.07;;;16.33;;
25950;SDS011;13748;52.240;6.002;2022-08-14T04:03:10;18.50;;;15.03;;
25950;SDS011;13748;52.240;6.002;2022-08-14T04:05:44;17.90;;;14.17;;
25950;SDS011;13748;52.240;6.002;2022-08-14T04:08:14;19.13;;;15.13;;
25950;SDS011;13748;52.240;6.002;2022-08-14T04:10:55;16.10;;;14.40;;
25950;SDS011;13748;52.240;6.002;2022-08-14T04:13:23;18.23;;;15.33;;
25950;SDS011;13748;52.240;6.002;2022-08-14T04:15:53;18.90;;;15.20;;
25950;SDS011;13748;52.240;6.002;2022-08-14T04:18:26;16.93;;;15.13;;
25950;SDS011;13748;52.240;6.002;2022-08-14T04:20:55;22.20;;;14.47;;
25950;SDS011;13748;52.240;6.002;2022-08-14T04:23:24;19.23;;;15.13;;
25950;SDS011;13748;52.240;6.002;2022-08-14T04:25:58;20.90;;;16.03;;
25950;SDS011;13748;52.240;6.002;2022-08-14T04:28:26;18.47;;;15.53;;
25950;SDS011;13748;52.240;6.002;2022-08-14T04:31:14;20.10;;;14.83;;
25950;SDS011;13748;52.240;6.002;2022-08-14T04:33:41;20.13;;;15.47;;
25950;SDS011;13748;52.240;6.002;2022-08-14T04:36:09;18.87;;;15.43;;
25950;SDS011;13748;52.240;6.002;2022-08-14T04:38:42;17.87;;;15.83;;
25950;SDS011;13748;52.240;6.002;2022-08-14T04:41:28;18.23;;;15.83;;
25950;SDS011;13748;52.240;6.002;2022-08-14T04:44:16;19.00;;;14.83;;
25950;SDS011;13748;52.240;6.002;2022-08-14T04:47:01;19.40;;;16.00;;
25950;SDS011;13748;52.240;6.002;2022-08-14T04:49:48;20.83;;;16.80;;
25950;SDS011;13748;52.240;6.002;2022-08-14T04:52:23;18.70;;;15.80;;
25950;SDS011;13748;52.240;6.002;2022-08-14T04:54:50;20.60;;;17.07;;
25950;SDS011;13748;52.240;6.002;2022-08-14T04:57:19;18.63;;;15.80;;
25950;SDS011;13748;52.240;6.002;2022-08-14T04:59:48;20.77;;;17.10;;
25950;SDS011;13748;52.240;6.002;2022-08-14T05:02:16;21.13;;;17.07;;
25950;SDS011;13748;52.240;6.002;2022-08-14T05:04:43;20.27;;;17.13;;
25950;SDS011;13748;52.240;6.002;2022-08-14T05:07:23;20.47;;;17.83;;
25950;SDS011;13748;52.240;6.002;2022-08-14T05:10:10;20.50;;;16.63;;
25950;SDS011;13748;52.240;6.002;2022-08-14T05:12:47;23.42;;;16.55;;
25950;SDS011;13748;52.240;6.002;2022-08-14T05:15:34;19.43;;;15.83;;
25950;SDS011;13748;52.240;6.002;2022-08-14T05:18:12;23.57;;;17.97;;
25950;SDS011;13748;52.240;6.002;2022-08-14T05:21:05;20.33;;;16.87;;
25950;SDS011;13748;52.240;6.002;2022-08-14T05:23:54;19.85;;;16.33;;
25950;SDS011;13748;52.240;6.002;2022-08-14T05:26:22;21.98;;;18.35;;
25950;SDS011;13748;52.240;6.002;2022-08-14T05:28:48;22.67;;;18.27;;
25950;SDS011;13748;52.240;6.002;2022-08-14T05:31:16;20.45;;;17.70;;
25950;SDS011;13748;52.240;6.002;2022-08-14T05:33:46;22.87;;;18.77;;
25950;SDS011;13748;52.240;6.002;2022-08-14T05:36:22;22.40;;;18.42;;
25950;SDS011;13748;52.240;6.002;2022-08-14T05:38:52;26.30;;;20.55;;
25950;SDS011;13748;52.240;6.002;2022-08-14T05:41:20;24.38;;;18.17;;
25950;SDS011;13748;52.240;6.002;2022-08-14T05:43:47;22.15;;;17.85;;
25950;SDS011;13748;52.240;6.002;2022-08-14T05:46:17;23.60;;;19.35;;
25950;SDS011;13748;52.240;6.002;2022-08-14T05:48:48;23.08;;;19.08;;
25950;SDS011;13748;52.240;6.002;2022-08-14T05:51:17;22.95;;;19.58;;
25950;SDS011;13748;52.240;6.002;2022-08-14T05:53:44;21.42;;;18.27;;
25950;SDS011;13748;52.240;6.002;2022-08-14T05:56:30;23.13;;;18.42;;
25950;SDS011;13748;52.240;6.002;2022-08-14T05:59:02;22.45;;;19.40;;
25950;SDS011;13748;52.240;6.002;2022-08-14T06:01:29;24.95;;;19.80;;
25950;SDS011;13748;52.240;6.002;2022-08-14T06:03:59;22.48;;;18.92;;
25950;SDS011;13748;52.240;6.002;2022-08-14T06:06:29;21.98;;;18.95;;
25950;SDS011;13748;52.240;6.002;2022-08-14T06:09:03;21.13;;;18.58;;
25950;SDS011;13748;52.240;6.002;2022-08-14T06:11:30;21.73;;;18.58;;
25950;SDS011;13748;52.240;6.002;2022-08-14T06:13:57;20.15;;;17.73;;
25950;SDS011;13748;52.240;6.002;2022-08-14T06:16:24;22.65;;;17.40;;
25950;SDS011;13748;52.240;6.002;2022-08-14T06:18:52;20.65;;;17.30;;
25950;SDS011;13748;52.240;6.002;2022-08-14T06:21:24;18.48;;;16.15;;
25950;SDS011;13748;52.240;6.002;2022-08-14T06:23:51;18.42;;;16.45;;
25950;SDS011;13748;52.240;6.002;2022-08-14T06:26:18;20.70;;;16.42;;
25950;SDS011;13748;52.240;6.002;2022-08-14T06:28:48;17.42;;;15.63;;
25950;SDS011;13748;52.240;6.002;2022-08-14T06:31:17;17.23;;;15.43;;
25950;SDS011;13748;52.240;6.002;2022-08-14T06:33:46;16.67;;;14.98;;
25950;SDS011;13748;52.240;6.002;2022-08-14T06:36:32;16.80;;;14.48;;
25950;SDS011;13748;52.240;6.002;2022-08-14T06:39:01;17.55;;;15.40;;
25950;SDS011;13748;52.240;6.002;2022-08-14T06:41:33;16.75;;;14.90;;
25950;SDS011;13748;52.240;6.002;2022-08-14T06:44:20;16.85;;;14.70;;
25950;SDS011;13748;52.240;6.002;2022-08-14T06:46:56;16.55;;;14.75;;
25950;SDS011;13748;52.240;6.002;2022-08-14T06:49:24;16.50;;;14.80;;
25950;SDS011;13748;52.240;6.002;2022-08-14T06:51:52;15.75;;;13.95;;
25950;SDS011;13748;52.240;6.002;2022-08-14T06:54:19;13.80;;;12.50;;
25950;SDS011;13748;52.240;6.002;2022-08-14T06:56:46;14.32;;;12.93;;
25950;SDS011;13748;52.240;6.002;2022-08-14T06:59:19;12.85;;;11.55;;
25950;SDS011;13748;52.240;6.002;2022-08-14T07:01:47;12.70;;;11.45;;
25950;SDS011;13748;52.240;6.002;2022-08-14T07:04:38;11.73;;;10.57;;
25950;SDS011;13748;52.240;6.002;2022-08-14T07:07:24;11.88;;;10.65;;
25950;SDS011;13748;52.240;6.002;2022-08-14T07:09:54;11.98;;;10.88;;
25950;SDS011;13748;52.240;6.002;2022-08-14T07:12:21;13.60;;;10.82;;
25950;SDS011;13748;52.240;6.002;2022-08-14T07:15:08;12.85;;;10.90;;
25950;SDS011;13748;52.240;6.002;2022-08-14T07:17:46;12.40;;;11.07;;
25950;SDS011;13748;52.240;6.002;2022-08-14T07:20:17;10.93;;;9.90;;
25950;SDS011;13748;52.240;6.002;2022-08-14T07:22:57;10.85;;;9.85;;
25950;SDS011;13748;52.240;6.002;2022-08-14T07:25:34;10.73;;;9.63;;
25950;SDS011;13748;52.240;6.002;2022-08-14T07:28:13;10.82;;;9.82;;
25950;SDS011;13748;52.240;6.002;2022-08-14T07:30:46;10.63;;;9.52;;
25950;SDS011;13748;52.240;6.002;2022-08-14T07:33:17;11.38;;;9.73;;
25950;SDS011;13748;52.240;6.002;2022-08-14T07:35:50;10.25;;;9.20;;
25950;SDS011;13748;52.240;6.002;2022-08-14T07:38:24;11.38;;;9.32;;
25950;SDS011;13748;52.240;6.002;2022-08-14T07:41:00;10.35;;;9.45;;
25950;SDS011;13748;52.240;6.002;2022-08-14T07:43:40;10.82;;;9.82;;
25950;SDS011;13748;52.240;6.002;2022-08-14T07:46:07;10.23;;;9.23;;
25950;SDS011;13748;52.240;6.002;2022-08-14T07:48:38;9.80;;;8.88;;
25950;SDS011;13748;52.240;6.002;2022-08-14T07:51:06;11.85;;;9.18;;
25950;SDS011;13748;52.240;6.002;2022-08-14T07:53:36;10.13;;;9.13;;
25950;SDS011;13748;52.240;6.002;2022-08-14T07:56:06;9.93;;;9.02;;
25950;SDS011;13748;52.240;6.002;2022-08-14T07:58:53;9.75;;;8.80;;
25950;SDS011;13748;52.240;6.002;2022-08-14T08:01:23;9.25;;;8.43;;
25950;SDS011;13748;52.240;6.002;2022-08-14T08:03:55;8.80;;;7.95;;
25950;SDS011;13748;52.240;6.002;2022-08-14T08:06:25;10.60;;;9.00;;
25950;SDS011;13748;52.240;6.002;2022-08-14T08:08:54;9.32;;;8.43;;
25950;SDS011;13748;52.240;6.002;2022-08-14T08:11:28;12.10;;;9.07;;
25950;SDS011;13748;52.240;6.002;2022-08-14T08:14:03;9.43;;;8.30;;
25950;SDS011;13748;52.240;6.002;2022-08-14T08:16:41;9.60;;;8.05;;
25950;SDS011;13748;52.240;6.002;2022-08-14T08:19:08;9.52;;;8.10;;
25950;SDS011;13748;52.240;6.002;2022-08-14T08:21:39;8.73;;;7.75;;
25950;SDS011;13748;52.240;6.002;2022-08-14T08:24:09;9.63;;;8.63;;
25950;SDS011;13748;52.240;6.002;2022-08-14T08:26:40;10.02;;;8.40;;
25950;SDS011;13748;52.240;6.002;2022-08-14T08:29:07;8.55;;;7.75;;
25950;SDS011;13748;52.240;6.002;2022-08-14T08:31:54;9.50;;;8.43;;
25950;SDS011;13748;52.240;6.002;2022-08-14T08:34:20;8.63;;;7.80;;
25950;SDS011;13748;52.240;6.002;2022-08-14T08:36:49;9.77;;;7.60;;
25950;SDS011;13748;52.240;6.002;2022-08-14T08:39:17;8.18;;;7.47;;
25950;SDS011;13748;52.240;6.002;2022-08-14T08:41:48;12.23;;;7.45;;
25950;SDS011;13748;52.240;6.002;2022-08-14T08:44:19;8.63;;;7.68;;
25950;SDS011;13748;52.240;6.002;2022-08-14T08:46:59;8.43;;;7.65;;
25950;SDS011;13748;52.240;6.002;2022-08-14T08:49:39;7.82;;;7.13;;
25950;SDS011;13748;52.240;6.002;2022-08-14T08:52:24;9.00;;;7.82;;
25950;SDS011;13748;52.240;6.002;2022-08-14T08:54:56;8.20;;;7.22;;
25950;SDS011;13748;52.240;6.002;2022-08-14T08:57:24;7.95;;;7.22;;
25950;SDS011;13748;52.240;6.002;2022-08-14T08:59:51;7.82;;;7.13;;
25950;SDS011;13748;52.240;6.002;2022-08-14T09:02:23;8.52;;;7.75;;
25950;SDS011;13748;52.240;6.002;2022-08-14T09:04:59;10.05;;;8.25;;
25950;SDS011;13748;52.240;6.002;2022-08-14T09:07:27;8.60;;;7.80;;
25950;SDS011;13748;52.240;6.002;2022-08-14T09:09:56;8.75;;;7.95;;
25950;SDS011;13748;52.240;6.002;2022-08-14T09:12:28;8.23;;;7.53;;
25950;SDS011;13748;52.240;6.002;2022-08-14T09:14:58;7.75;;;7.03;;
25950;SDS011;13748;52.240;6.002;2022-08-14T09:17:37;8.18;;;7.38;;
25950;SDS011;13748;52.240;6.002;2022-08-14T09:20:07;8.55;;;7.80;;
25950;SDS011;13748;52.240;6.002;2022-08-14T09:22:37;8.65;;;7.75;;
25950;SDS011;13748;52.240;6.002;2022-08-14T09:25:13;8.18;;;7.47;;
25950;SDS011;13748;52.240;6.002;2022-08-14T09:27:44;7.93;;;7.13;;
25950;SDS011;13748;52.240;6.002;2022-08-14T09:30:11;8.02;;;7.03;;
25950;SDS011;13748;52.240;6.002;2022-08-14T09:35:53;8.18;;;7.47;;
25950;SDS011;13748;52.240;6.002;2022-08-14T09:43:53;8.10;;;7.30;;
25950;SDS011;13748;52.240;6.002;2022-08-14T09:46:32;8.32;;;7.10;;
25950;SDS011;13748;52.240;6.002;2022-08-14T09:51:28;7.78;;;7.07;;
25950;SDS011;13748;52.240;6.002;2022-08-14T09:54:08;7.55;;;6.85;;
25950;SDS011;13748;52.240;6.002;2022-08-14T09:56:49;7.75;;;6.95;;
25950;SDS011;13748;52.240;6.002;2022-08-14T09:59:24;8.40;;;7.60;;
25950;SDS011;13748;52.240;6.002;2022-08-14T10:01:53;7.45;;;6.72;;
25950;SDS011;13748;52.240;6.002;2022-08-14T10:04:24;9.23;;;7.10;;
25950;SDS011;13748;52.240;6.002;2022-08-14T10:07:03;7.75;;;7.05;;
25950;SDS011;13748;52.240;6.002;2022-08-14T10:09:33;8.40;;;7.68;;
25950;SDS011;13748;52.240;6.002;2022-08-14T10:12:46;7.82;;;7.10;;
25950;SDS011;13748;52.240;6.002;2022-08-14T10:15:21;8.55;;;7.65;;
25950;SDS011;13748;52.240;6.002;2022-08-14T10:18:01;8.05;;;7.25;;
25950;SDS011;13748;52.240;6.002;2022-08-14T10:20:35;7.40;;;6.70;;
25950;SDS011;13748;52.240;6.002;2022-08-14T10:23:14;7.45;;;6.50;;
25950;SDS011;13748;52.240;6.002;2022-08-14T10:25:48;8.88;;;7.10;;
25950;SDS011;13748;52.240;6.002;2022-08-14T10:28:24;8.88;;;7.15;;
25950;SDS011;13748;52.240;6.002;2022-08-14T10:31:22;7.32;;;6.63;;
25950;SDS011;13748;52.240;6.002;2022-08-14T10:34:05;7.88;;;7.18;;
25950;SDS011;13748;52.240;6.002;2022-08-14T10:36:40;8.93;;;6.72;;
25950;SDS011;13748;52.240;6.002;2022-08-14T10:39:17;8.75;;;7.55;;
25950;SDS011;13748;52.240;6.002;2022-08-14T10:41:46;7.47;;;6.78;;
25950;SDS011;13748;52.240;6.002;2022-08-14T10:44:21;7.38;;;6.57;;
25950;SDS011;13748;52.240;6.002;2022-08-14T10:46:55;7.35;;;6.65;;
25950;SDS011;13748;52.240;6.002;2022-08-14T10:49:54;8.40;;;6.82;;
25950;SDS011;13748;52.240;6.002;2022-08-14T10:52:26;7.43;;;6.70;;
25950;SDS011;13748;52.240;6.002;2022-08-14T10:55:06;7.72;;;7.03;;
25950;SDS011;13748;52.240;6.002;2022-08-14T10:57:48;8.02;;;7.22;;
25950;SDS011;13748;52.240;6.002;2022-08-14T11:00:18;7.28;;;6.57;;
25950;SDS011;13748;52.240;6.002;2022-08-14T11:03:02;8.13;;;6.95;;
25950;SDS011;13748;52.240;6.002;2022-08-14T11:05:37;7.72;;;6.93;;
25950;SDS011;13748;52.240;6.002;2022-08-14T11:08:06;7.90;;;7.10;;
25950;SDS011;13748;52.240;6.002;2022-08-14T11:13:16;7.45;;;6.75;;
25950;SDS011;13748;52.240;6.002;2022-08-14T11:15:49;7.45;;;6.70;;
25950;SDS011;13748;52.240;6.002;2022-08-14T11:18:19;6.97;;;6.30;;
25950;SDS011;13748;52.240;6.002;2022-08-14T11:21:01;9.48;;;6.95;;
25950;SDS011;13748;52.240;6.002;2022-08-14T11:23:32;7.60;;;6.78;;
25950;SDS011;13748;52.240;6.002;2022-08-14T11:26:06;7.85;;;7.05;;
25950;SDS011;13748;52.240;6.002;2022-08-14T11:28:39;7.10;;;6.40;;
25950;SDS011;13748;52.240;6.002;2022-08-14T11:31:14;6.57;;;5.97;;
25950;SDS011;13748;52.240;6.002;2022-08-14T11:33:48;7.45;;;6.75;;
25950;SDS011;13748;52.240;6.002;2022-08-14T11:36:25;7.20;;;6.47;;
25950;SDS011;13748;52.240;6.002;2022-08-14T11:39:20;7.05;;;6.35;;
25950;SDS011;13748;52.240;6.002;2022-08-14T11:42:00;7.47;;;6.78;;
25950;SDS011;13748;52.240;6.002;2022-08-14T11:44:48;7.40;;;6.40;;
25950;SDS011;13748;52.240;6.002;2022-08-14T11:47:22;7.38;;;6.63;;
25950;SDS011;13748;52.240;6.002;2022-08-14T11:50:00;6.82;;;5.85;;
25950;SDS011;13748;52.240;6.002;2022-08-14T11:53:02;9.07;;;6.88;;
25950;SDS011;13748;52.240;6.002;2022-08-14T11:55:33;7.03;;;6.00;;
25950;SDS011;13748;52.240;6.002;2022-08-14T11:58:07;7.15;;;6.30;;
25950;SDS011;13748;52.240;6.002;2022-08-14T12:00:48;6.47;;;5.97;;
25950;SDS011;13748;52.240;6.002;2022-08-14T12:03:19;6.72;;;6.07;;
25950;SDS011;13748;52.240;6.002;2022-08-14T12:06:07;6.60;;;5.95;;
25950;SDS011;13748;52.240;6.002;2022-08-14T12:08:55;6.20;;;5.70;;
25950;SDS011;13748;52.240;6.002;2022-08-14T12:11:25;6.60;;;6.00;;
25950;SDS011;13748;52.240;6.002;2022-08-14T12:13:52;5.60;;;5.10;;
25950;SDS011;13748;52.240;6.002;2022-08-14T12:16:21;6.35;;;5.85;;
25950;SDS011;13748;52.240;6.002;2022-08-14T12:18:48;6.40;;;5.82;;
25950;SDS011;13748;52.240;6.002;2022-08-14T12:21:18;6.70;;;6.10;;
25950;SDS011;13748;52.240;6.002;2022-08-14T12:23:53;6.72;;;6.13;;
25950;SDS011;13748;52.240;6.002;2022-08-14T12:26:28;6.72;;;6.13;;
25950;SDS011;13748;52.240;6.002;2022-08-14T12:29:09;5.53;;;5.03;;
25950;SDS011;13748;52.240;6.002;2022-08-14T12:31:38;6.70;;;6.10;;
25950;SDS011;13748;52.240;6.002;2022-08-14T12:34:13;6.85;;;6.20;;
25950;SDS011;13748;52.240;6.002;2022-08-14T12:36:46;7.10;;;6.38;;
25950;SDS011;13748;52.240;6.002;2022-08-14T12:39:17;7.10;;;6.05;;
25950;SDS011;13748;52.240;6.002;2022-08-14T12:41:53;5.97;;;5.47;;
25950;SDS011;13748;52.240;6.002;2022-08-14T12:44:33;7.65;;;5.43;;
25950;SDS011;13748;52.240;6.002;2022-08-14T12:47:07;6.50;;;5.70;;
25950;SDS011;13748;52.240;6.002;2022-08-14T12:49:46;6.13;;;5.53;;
25950;SDS011;13748;52.240;6.002;2022-08-14T12:52:31;6.82;;;5.60;;
25950;SDS011;13748;52.240;6.002;2022-08-14T12:55:19;6.20;;;5.60;;
25950;SDS011;13748;52.240;6.002;2022-08-14T12:57:47;6.63;;;6.05;;
25950;SDS011;13748;52.240;6.002;2022-08-14T13:00:22;6.35;;;5.75;;
25950;SDS011;13748;52.240;6.002;2022-08-14T13:02:54;6.78;;;6.05;;
25950;SDS011;13748;52.240;6.002;2022-08-14T13:05:25;6.47;;;5.88;;
25950;SDS011;13748;52.240;6.002;2022-08-14T13:07:59;6.78;;;6.07;;
25950;SDS011;13748;52.240;6.002;2022-08-14T13:10:33;6.93;;;5.70;;
25950;SDS011;13748;52.240;6.002;2022-08-14T13:13:18;6.18;;;5.60;;
25950;SDS011;13748;52.240;6.002;2022-08-14T13:15:47;6.32;;;5.72;;
25950;SDS011;13748;52.240;6.002;2022-08-14T13:18:22;6.50;;;5.90;;
25950;SDS011;13748;52.240;6.002;2022-08-14T13:20:54;5.93;;;5.32;;
25950;SDS011;13748;52.240;6.002;2022-08-14T13:23:27;6.07;;;5.55;;
25950;SDS011;13748;52.240;6.002;2022-08-14T13:26:02;6.65;;;5.72;;
25950;SDS011;13748;52.240;6.002;2022-08-14T13:28:30;8.18;;;5.55;;
25950;SDS011;13748;52.240;6.002;2022-08-14T13:31:06;5.68;;;5.18;;
25950;SDS011;13748;52.240;6.002;2022-08-14T13:33:37;6.45;;;5.85;;
25950;SDS011;13748;52.240;6.002;2022-08-14T13:36:06;5.38;;;4.88;;
25950;SDS011;13748;52.240;6.002;2022-08-14T13:38:48;5.78;;;5.28;;
25950;SDS011;13748;52.240;6.002;2022-08-14T13:41:16;5.88;;;5.30;;
25950;SDS011;13748;52.240;6.002;2022-08-14T13:43:57;5.78;;;5.28;;
25950;SDS011;13748;52.240;6.002;2022-08-14T13:46:25;5.07;;;4.68;;
25950;SDS011;13748;52.240;6.002;2022-08-14T13:48:53;6.35;;;5.85;;
25950;SDS011;13748;52.240;6.002;2022-08-14T13:51:25;5.03;;;4.53;;
25950;SDS011;13748;52.240;6.002;2022-08-14T13:53:55;5.63;;;5.20;;
25950;SDS011;13748;52.240;6.002;2022-08-14T13:56:36;5.47;;;5.07;;
25950;SDS011;13748;52.240;6.002;2022-08-14T13:59:04;8.27;;;5.57;;
25950;SDS011;13748;52.240;6.002;2022-08-14T14:01:32;8.60;;;5.63;;
25950;SDS011;13748;52.240;6.002;2022-08-14T14:04:11;5.28;;;4.88;;
25950;SDS011;13748;52.240;6.002;2022-08-14T14:06:45;5.90;;;5.40;;
25950;SDS011;13748;52.240;6.002;2022-08-14T14:09:14;6.05;;;5.45;;
25950;SDS011;13748;52.240;6.002;2022-08-14T14:11:48;5.95;;;5.15;;
25950;SDS011;13748;52.240;6.002;2022-08-14T14:14:18;6.50;;;5.90;;
25950;SDS011;13748;52.240;6.002;2022-08-14T14:17:07;6.45;;;5.80;;
25950;SDS011;13748;52.240;6.002;2022-08-14T14:19:37;6.07;;;5.40;;
25950;SDS011;13748;52.240;6.002;2022-08-14T14:22:06;5.68;;;5.18;;
25950;SDS011;13748;52.240;6.002;2022-08-14T14:24:35;6.13;;;5.53;;
25950;SDS011;13748;52.240;6.002;2022-08-14T14:27:02;5.80;;;5.30;;
25950;SDS011;13748;52.240;6.002;2022-08-14T14:29:50;6.18;;;5.65;;
25950;SDS011;13748;52.240;6.002;2022-08-14T14:32:20;5.72;;;5.22;;
25950;SDS011;13748;52.240;6.002;2022-08-14T14:35:00;6.35;;;5.75;;
25950;SDS011;13748;52.240;6.002;2022-08-14T14:37:28;6.65;;;5.78;;
25950;SDS011;13748;52.240;6.002;2022-08-14T14:39:56;5.50;;;5.10;;
25950;SDS011;13748;52.240;6.002;2022-08-14T14:42:45;5.97;;;5.47;;
25950;SDS011;13748;52.240;6.002;2022-08-14T14:45:21;5.60;;;5.10;;
25950;SDS011;13748;52.240;6.002;2022-08-14T14:47:53;6.03;;;5.20;;
25950;SDS011;13748;52.240;6.002;2022-08-14T14:50:24;6.53;;;5.93;;
25950;SDS011;13748;52.240;6.002;2022-08-14T14:52:53;5.97;;;5.47;;
25950;SDS011;13748;52.240;6.002;2022-08-14T14:55:38;5.93;;;5.43;;
25950;SDS011;13748;52.240;6.002;2022-08-14T14:58:27;6.07;;;5.47;;
25950;SDS011;13748;52.240;6.002;2022-08-14T15:00:59;5.95;;;5.45;;
25950;SDS011;13748;52.240;6.002;2022-08-14T15:03:34;6.45;;;5.85;;
25950;SDS011;13748;52.240;6.002;2022-08-14T15:06:02;5.90;;;5.40;;
25950;SDS011;13748;52.240;6.002;2022-08-14T15:08:30;6.20;;;5.70;;
25950;SDS011;13748;52.240;6.002;2022-08-14T15:11:18;7.10;;;5.55;;
25950;SDS011;13748;52.240;6.002;2022-08-14T15:13:45;5.63;;;5.07;;
25950;SDS011;13748;52.240;6.002;2022-08-14T15:16:18;5.85;;;5.07;;
25950;SDS011;13748;52.240;6.002;2022-08-14T15:18:45;6.75;;;5.55;;
25950;SDS011;13748;52.240;6.002;2022-08-14T15:21:14;6.60;;;5.57;;
25950;SDS011;13748;52.240;6.002;2022-08-14T15:23:41;6.43;;;5.70;;
25950;SDS011;13748;52.240;6.002;2022-08-14T15:26:10;6.05;;;5.45;;
25950;SDS011;13748;52.240;6.002;2022-08-14T15:29:01;5.38;;;4.88;;
25950;SDS011;13748;52.240;6.002;2022-08-14T15:31:32;5.90;;;5.32;;
25950;SDS011;13748;52.240;6.002;2022-08-14T15:34:02;6.72;;;5.68;;